Terminal Aerodrome Forecast
Issued by NWS Grand Forks, ND

Home | Current Version | Previous Version | Text Only | Print | Product List | Glossary Off
Versions: 1 2 3 4 5 6 7 8 9 10 11 12 13 14 15 16 17 18 19 20 21 22 23 24 25 26 27

000
FTUS43 KFGF 152334
TAFFAR
TAF
KFAR 152334Z 1600/1624 15008KT 2SM -SN BR SCT007 OVC025
      TEMPO 1600/1602 1SM -SN OVC007
     FM160200 14006KT P6SM OVC025
     FM161300 16004KT P6SM OVC008
     FM161600 VRB05KT P6SM OVC010
     FM162300 33004KT P6SM BKN030=

USA.gov is the U.S. government's official web portal to all federal, state and local government web resources and services.